»·PEaware :: N738YC KBUR-KPMD

N738YC :: KBUR-KPMD

FLIGHT INFORMATION

Flight Status: Arrived
Operator: Privately registered:
United States
More flights under this callsign
Pilot: Timothy S. (27694)
Aircraft: CESSNA 172 SKYHAWK
(C172)
More flights by this aircraft type
Origin: KBUR Bob Hope-Burbank
United States
Destination: KPMD Palmdale AF Plant 42
United States
More flights between these airports :: More routes between these airports
Route: VNY3 PMD
File this flight plan on PilotEdge
Remarks: RNAV GPS RWY 7
Altitude:
(Current/Filed)
7,000ft
Speed:
(Current/Filed)
110kts
Departed: 08-Dec-22 06:05 PM
Arrived: 08-Dec-22 06:37 PM
Distance/Time
Traveled:
28nm/0:31
Distance/Time
To Go:
Arrived

Flight Plot

Page will automatically refresh every two minutes.

Flight plan parsing failed; only flown route is shown


Map Options




Map Legend


Flown Route
Filed Route
Departure Airport
Arrival Airport
Navaid (VOR, NDB)
Fix

Horizontal Profiles

Position Reports

Time Latitude Longitude Heading Altitude Ground
Speed
08-Dec-22 17:01 34.199450 -118.359864 182 717ft 0kts
08-Dec-22 17:02 34.199450 -118.359864 182 717ft 0kts
08-Dec-22 17:03 34.199450 -118.359864 182 717ft 0kts
08-Dec-22 17:04 34.199450 -118.359864 182 717ft 0kts
08-Dec-22 17:05 34.199450 -118.359864 182 717ft 0kts
08-Dec-22 17:06 34.199449 -118.359864 182 717ft 0kts
08-Dec-22 17:07 34.199449 -118.359864 182 717ft 0kts
08-Dec-22 17:08 34.199449 -118.359864 182 717ft 0kts
08-Dec-22 17:09 34.199449 -118.359864 182 717ft 0kts
08-Dec-22 17:10 34.199449 -118.359864 182 717ft 0kts
08-Dec-22 17:11 34.199449 -118.359864 182 717ft 0kts
08-Dec-22 17:12 34.199449 -118.359864 182 717ft 0kts
08-Dec-22 17:13 34.199449 -118.359864 182 726ft 0kts
08-Dec-22 17:14 34.199449 -118.359864 182 726ft 0kts
08-Dec-22 17:15 34.199449 -118.359864 182 726ft 0kts
08-Dec-22 17:16 34.199449 -118.359864 183 726ft 0kts
08-Dec-22 17:17 34.199449 -118.359864 183 726ft 0kts
08-Dec-22 17:18 34.199449 -118.359864 183 726ft 0kts
08-Dec-22 17:19 34.199449 -118.359864 184 726ft 0kts
08-Dec-22 17:20 34.199449 -118.359864 184 726ft 0kts
08-Dec-22 17:21 34.199449 -118.359864 184 726ft 0kts
08-Dec-22 17:22 34.199449 -118.359864 184 726ft 0kts
08-Dec-22 17:23 34.199449 -118.359863 185 726ft 0kts
08-Dec-22 17:24 34.199449 -118.359863 185 726ft 0kts
08-Dec-22 17:25 34.199449 -118.359863 185 726ft 0kts
08-Dec-22 17:26 34.199449 -118.359863 186 726ft 0kts
08-Dec-22 17:27 34.199449 -118.359863 186 717ft 0kts
08-Dec-22 17:28 34.199449 -118.359863 186 717ft 0kts
08-Dec-22 17:29 34.199449 -118.359863 187 717ft 0kts
08-Dec-22 17:30 34.199449 -118.359863 187 717ft 0kts
08-Dec-22 17:31 34.199434 -118.359866 192 717ft 0kts
08-Dec-22 17:32 34.199434 -118.359866 193 717ft 0kts
08-Dec-22 17:33 34.199434 -118.359866 193 717ft 0kts
08-Dec-22 17:34 34.199434 -118.359866 194 717ft 0kts
08-Dec-22 17:35 34.199434 -118.359866 194 717ft 0kts
08-Dec-22 17:36 34.199434 -118.359866 194 717ft 0kts
08-Dec-22 17:37 34.199434 -118.359866 195 717ft 0kts
08-Dec-22 17:38 34.199434 -118.359866 195 717ft 0kts
08-Dec-22 17:39 34.199434 -118.359866 196 717ft 0kts
08-Dec-22 17:40 34.199434 -118.359866 196 717ft 0kts
08-Dec-22 17:41 34.199434 -118.359866 196 717ft 0kts
08-Dec-22 17:43 34.199434 -118.359866 197 717ft 0kts
08-Dec-22 17:44 34.199434 -118.359865 197 717ft 0kts
08-Dec-22 17:45 34.199434 -118.359865 198 717ft 0kts
08-Dec-22 17:46 34.199434 -118.359865 198 717ft 0kts
08-Dec-22 17:47 34.199434 -118.359865 198 717ft 0kts
08-Dec-22 17:48 34.199434 -118.359865 199 717ft 0kts
08-Dec-22 17:49 34.199434 -118.359865 199 717ft 0kts
08-Dec-22 17:50 34.199434 -118.359865 199 717ft 0kts
08-Dec-22 17:51 34.199434 -118.359865 200 717ft 0kts
08-Dec-22 17:52 34.199434 -118.359865 200 717ft 0kts
08-Dec-22 17:53 34.199434 -118.359865 201 717ft 0kts
08-Dec-22 17:54 34.199434 -118.359865 201 717ft 0kts
08-Dec-22 17:55 34.199434 -118.359865 201 717ft 0kts
08-Dec-22 17:56 34.199434 -118.359864 202 717ft 0kts
08-Dec-22 17:57 34.199434 -118.359864 202 717ft 0kts
08-Dec-22 17:58 34.199434 -118.359864 202 717ft 0kts
08-Dec-22 17:59 34.199434 -118.359864 203 717ft 0kts
08-Dec-22 18:00 34.199126 -118.360096 226 717ft 8kts
08-Dec-22 18:01 34.199091 -118.365622 270 723ft 18kts
08-Dec-22 18:02 34.198763 -118.369002 184 730ft 0kts
08-Dec-22 18:03 34.198763 -118.369002 184 730ft 0kts
08-Dec-22 18:04 34.198763 -118.369002 184 730ft 0kts
08-Dec-22 18:05 34.198089 -118.358574 88 870ft 76kts
08-Dec-22 18:06 34.186991 -118.348083 220 1714ft 82kts
08-Dec-22 18:07 34.168868 -118.367920 226 2411ft 99kts
08-Dec-22 18:08 34.157032 -118.396051 220 2951ft 101kts
08-Dec-22 18:09 34.165113 -118.415004 351 3621ft 97kts
08-Dec-22 18:10 34.193168 -118.418788 349 4229ft 104kts
08-Dec-22 18:10 34.217236 -118.423328 347 4743ft 107kts
08-Dec-22 18:12 34.251123 -118.433126 349 5383ft 109kts
08-Dec-22 18:13 34.280441 -118.436266 346 5909ft 109kts
08-Dec-22 18:14 34.310596 -118.440262 347 6365ft 110kts
08-Dec-22 18:15 34.340055 -118.447666 351 6871ft 108kts
08-Dec-22 18:15 34.366284 -118.447755 350 6945ft 114kts
08-Dec-22 18:16 34.395043 -118.458105 352 6975ft 110kts
08-Dec-22 18:18 34.430152 -118.463536 6 7007ft 108kts
08-Dec-22 18:19 34.459077 -118.456822 39 6991ft 113kts
08-Dec-22 18:19 34.463783 -118.427190 96 6973ft 112kts
08-Dec-22 18:20 34.461010 -118.390191 90 6925ft 115kts
08-Dec-22 18:21 34.471873 -118.358494 359 6954ft 113kts
08-Dec-22 18:22 34.496865 -118.376898 313 6987ft 107kts
08-Dec-22 18:23 34.523796 -118.389730 348 7079ft 104kts
08-Dec-22 18:24 34.553470 -118.392628 358 7089ft 112kts
08-Dec-22 18:25 34.583557 -118.396166 336 6894ft 123kts
08-Dec-22 18:26 34.613472 -118.397686 358 6989ft 104kts
08-Dec-22 18:27 34.639634 -118.385476 67 6873ft 112kts
08-Dec-22 18:28 34.638330 -118.346240 102 6275ft 115kts
08-Dec-22 18:29 34.634289 -118.308100 103 5870ft 116kts
08-Dec-22 18:30 34.628363 -118.270764 97 5468ft 104kts
08-Dec-22 18:31 34.627038 -118.234132 75 4931ft 111kts
08-Dec-22 18:32 34.630172 -118.197293 86 4505ft 109kts
08-Dec-22 18:33 34.631179 -118.161732 122 4111ft 96kts
08-Dec-22 18:34 34.627630 -118.125153 82 3263ft 111kts
08-Dec-22 18:35 34.631751 -118.091509 86 2519ft 70kts
08-Dec-22 18:36 34.632587 -118.077356 85 2505ft 30kts
08-Dec-22 18:37 34.631232 -118.074071 230 2504ft 14kts
08-Dec-22 18:38 34.628161 -118.072589 147 2513ft 21kts
08-Dec-22 18:39 34.622104 -118.072527 182 2518ft 28kts
08-Dec-22 18:40 34.614272 -118.072674 181 2535ft 25kts
08-Dec-22 18:41 34.611286 -118.075884 242 2533ft 15kts
08-Dec-22 18:42 34.611258 -118.077526 355 2533ft 0kts
08-Dec-22 18:43 34.611258 -118.077526 355 2533ft 0kts

Navigation Log

Ident Type
Flight plan parsing failed, navigation log unavailable